Detall de PIREP

Printer-friendly versionPDF version

[2012/06/29 16:50:00]
Flight IATA:CT1005
Pilot Number:042
Company ICAO:CAT
Aircraft Type:B763/F
PAX:200
Departing Airport: EFRO
Destination Airport: EKCH
Alternate Airport:EKBI
Online: VATSIM
Route:EBOLU T404 VERAG T402 SVD
Flight Level:F360
No Slew and time accel
No pause
Crash detect
Detect pilot in Cockpit between each 30 and 45 minutes
16:50 Zero fuel Weight: 244976 Lbs, Fuel Weight: 161713 Lbs
16:50 VATSIM:EFRO 291620Z AUTO 20009KT CAVOK 13/02 Q1014
16:50 VATSIM:EKCH 291620Z 14011KT CAVOK 19/16 Q1008 NOSIG
16:50 VOICE CATALONIAN/EU TOUR
16:58 Parking Brakes off
17:05 Take-off
17:05 Take off Weight: 404403 Lbs
17:05 Wind: 192º @ 009 Knots Heading: 215º
17:05 POS N66º 33´ 43´´ E025º 49´ 30´´
17:05 Gear Up: 174 Knots
17:05 Flaps:3 at 174 Knots
17:05 Flaps:2 at 192 Knots
17:05 Flaps:1 at 209 Knots
17:06 Flaps:0 at 230 Knots
17:20 Wind:292º@068 Knots Heading:234º Ground Speed: 415 Knots Altitude 34924 ft
17:20 TOC
17:20 Fuel Weight: 151574 Lb
17:35 Wind:289º@081 Knots Heading: 220º Ground Speed: 433 Knots Altitude 35958 ft
17:50 Wind:272º@067 Knots Heading: 214º Ground Speed: 423 Knots Altitude 35895 ft
18:05 Wind:272º@051 Knots Heading: 212º Ground Speed: 431 Knots Altitude 35925 ft
18:20 Wind:232º@044 Knots Heading: 207º Ground Speed: 421 Knots Altitude 35882 ft
18:24 TOD
18:24 Fuel Weight: 139326 Lb
18:35 Wind:214º@047 Knots Heading: 205º Ground Speed: 368 Knots Altitude 28064 ft
18:50 Wind:218º@033 Knots Heading: 208º Ground Speed: 299 Knots Altitude 10892 ft
18:58 Flaps:1 at 241 Knots
18:58 Flaps:2 at 241 Knots
19:00 Flaps:3 at 205 Knots
19:01 Flaps:4 at 173 Knots
19:01 Gear Down: 173 Knots
19:01 Flaps:5 at 172 Knots
19:01 Flaps:6 at 171 Knots
19:02 Flaps:5 at 157 Knots
19:02 Flaps:6 at 157 Knots
19:05 Wind:139º@010 Knots Heading: 217º Ground Speed: 149 Knots Altitude 567 ft
19:05 TouchDown:Rate -179 ft/min Speed: 130 Knots
19:06 VATSIM:EKCH 291820Z 17007KT CAVOK 17/15 Q1008 BECMG 2500 TSRA BKN005 BKN030CB
19:06 Land
19:06 Wind:139º@010 Knots
19:06 Heading: 225º
19:06 Flight Duration: 02:01
19:06 Landing Weight: 379190 Lbs
19:06 POS N55º 36´ 47´´ E012º 38´ 54´´
19:13 Parking brakes on
19:13 Block to Block Duration: 02:15
19:13 Final Fuel: 132628 Lbls
19:13 Spent Fuel: 29085 Lbls
19:13 Flight Length: 766 NM
19:13 TOD Land Length: 215 NM

Exportar CSV

Powered by Drupal - Modified by Danger4k